sensor_id;sensor_type;location;lat;lon;timestamp;P1;durP1;ratioP1;P2;durP2;ratioP2
27722;SDS011;15123;-37.794;175.246;2023-03-11T00:01:33;8.15;;;1.35;;
27722;SDS011;15123;-37.794;175.246;2023-03-11T00:04:05;10.40;;;1.70;;
27722;SDS011;15123;-37.794;175.246;2023-03-11T00:06:37;9.77;;;1.40;;
27722;SDS011;15123;-37.794;175.246;2023-03-11T00:09:09;7.88;;;1.38;;
27722;SDS011;15123;-37.794;175.246;2023-03-11T00:11:41;7.53;;;1.17;;
27722;SDS011;15123;-37.794;175.246;2023-03-11T00:14:12;7.10;;;1.20;;
27722;SDS011;15123;-37.794;175.246;2023-03-11T00:16:44;8.18;;;1.35;;
27722;SDS011;15123;-37.794;175.246;2023-03-11T00:19:16;10.32;;;1.35;;
27722;SDS011;15123;-37.794;175.246;2023-03-11T00:21:48;8.68;;;1.30;;
27722;SDS011;15123;-37.794;175.246;2023-03-11T00:24:19;10.13;;;1.55;;
27722;SDS011;15123;-37.794;175.246;2023-03-11T00:26:50;10.30;;;1.35;;
27722;SDS011;15123;-37.794;175.246;2023-03-11T00:29:22;7.63;;;1.30;;
27722;SDS011;15123;-37.794;175.246;2023-03-11T00:31:54;7.68;;;1.23;;
27722;SDS011;15123;-37.794;175.246;2023-03-11T00:34:25;8.15;;;1.40;;
27722;SDS011;15123;-37.794;175.246;2023-03-11T00:36:56;8.13;;;1.20;;
27722;SDS011;15123;-37.794;175.246;2023-03-11T00:39:27;7.90;;;1.40;;
27722;SDS011;15123;-37.794;175.246;2023-03-11T00:41:59;10.50;;;1.48;;
27722;SDS011;15123;-37.794;175.246;2023-03-11T00:44:30;8.30;;;1.30;;
27722;SDS011;15123;-37.794;175.246;2023-03-11T00:47:02;9.60;;;1.30;;
27722;SDS011;15123;-37.794;175.246;2023-03-11T00:49:33;7.30;;;1.20;;
27722;SDS011;15123;-37.794;175.246;2023-03-11T00:57:08;8.85;;;1.40;;
27722;SDS011;15123;-37.794;175.246;2023-03-11T00:59:42;8.88;;;1.30;;
27722;SDS011;15123;-37.794;175.246;2023-03-11T01:04:44;9.30;;;1.30;;
27722;SDS011;15123;-37.794;175.246;2023-03-11T01:07:16;6.80;;;1.10;;
27722;SDS011;15123;-37.794;175.246;2023-03-11T01:09:47;8.25;;;1.10;;
27722;SDS011;15123;-37.794;175.246;2023-03-11T01:12:19;6.68;;;1.10;;
27722;SDS011;15123;-37.794;175.246;2023-03-11T01:17:30;9.85;;;1.17;;
27722;SDS011;15123;-37.794;175.246;2023-03-11T01:20:02;8.05;;;1.20;;
27722;SDS011;15123;-37.794;175.246;2023-03-11T01:22:37;8.52;;;1.30;;
27722;SDS011;15123;-37.794;175.246;2023-03-11T01:30:13;6.90;;;1.10;;
27722;SDS011;15123;-37.794;175.246;2023-03-11T01:32:46;7.05;;;1.10;;
27722;SDS011;15123;-37.794;175.246;2023-03-11T01:35:19;7.53;;;1.10;;
27722;SDS011;15123;-37.794;175.246;2023-03-11T01:37:53;9.38;;;1.13;;
27722;SDS011;15123;-37.794;175.246;2023-03-11T01:40:33;6.97;;;1.13;;
27722;SDS011;15123;-37.794;175.246;2023-03-11T01:46:21;9.60;;;1.20;;
27722;SDS011;15123;-37.794;175.246;2023-03-11T01:48:58;7.93;;;1.05;;
27722;SDS011;15123;-37.794;175.246;2023-03-11T01:51:43;8.73;;;1.30;;
27722;SDS011;15123;-37.794;175.246;2023-03-11T01:57:12;6.88;;;0.95;;
27722;SDS011;15123;-37.794;175.246;2023-03-11T01:59:46;8.23;;;1.00;;
27722;SDS011;15123;-37.794;175.246;2023-03-11T02:02:39;7.15;;;1.00;;
27722;SDS011;15123;-37.794;175.246;2023-03-11T02:05:13;8.70;;;1.02;;
27722;SDS011;15123;-37.794;175.246;2023-03-11T02:10:17;10.10;;;1.20;;
27722;SDS011;15123;-37.794;175.246;2023-03-11T02:12:49;11.45;;;1.30;;
27722;SDS011;15123;-37.794;175.246;2023-03-11T02:15:27;9.13;;;1.15;;
27722;SDS011;15123;-37.794;175.246;2023-03-11T02:18:00;7.13;;;1.05;;
27722;SDS011;15123;-37.794;175.246;2023-03-11T02:20:39;11.68;;;1.30;;
27722;SDS011;15123;-37.794;175.246;2023-03-11T02:23:23;11.20;;;1.75;;
27722;SDS011;15123;-37.794;175.246;2023-03-11T02:29:01;9.55;;;1.42;;
27722;SDS011;15123;-37.794;175.246;2023-03-11T02:31:35;7.32;;;0.82;;
27722;SDS011;15123;-37.794;175.246;2023-03-11T02:34:22;6.38;;;1.00;;
27722;SDS011;15123;-37.794;175.246;2023-03-11T02:36:55;8.75;;;1.17;;
27722;SDS011;15123;-37.794;175.246;2023-03-11T02:39:35;6.43;;;1.10;;
27722;SDS011;15123;-37.794;175.246;2023-03-11T02:42:16;9.13;;;1.10;;
27722;SDS011;15123;-37.794;175.246;2023-03-11T02:44:55;7.68;;;1.17;;
27722;SDS011;15123;-37.794;175.246;2023-03-11T02:47:30;9.35;;;1.52;;
27722;SDS011;15123;-37.794;175.246;2023-03-11T02:50:03;12.77;;;1.35;;
27722;SDS011;15123;-37.794;175.246;2023-03-11T02:52:36;8.45;;;1.80;;
27722;SDS011;15123;-37.794;175.246;2023-03-11T02:57:44;7.13;;;1.25;;
27722;SDS011;15123;-37.794;175.246;2023-03-11T03:00:16;9.02;;;1.25;;
27722;SDS011;15123;-37.794;175.246;2023-03-11T03:03:02;10.25;;;1.10;;
27722;SDS011;15123;-37.794;175.246;2023-03-11T03:05:34;9.80;;;1.30;;
27722;SDS011;15123;-37.794;175.246;2023-03-11T03:08:05;14.80;;;1.60;;
27722;SDS011;15123;-37.794;175.246;2023-03-11T03:10:38;8.63;;;1.17;;
27722;SDS011;15123;-37.794;175.246;2023-03-11T03:13:11;9.90;;;1.27;;
27722;SDS011;15123;-37.794;175.246;2023-03-11T03:15:43;12.48;;;1.10;;
27722;SDS011;15123;-37.794;175.246;2023-03-11T03:20:45;11.48;;;1.25;;
27722;SDS011;15123;-37.794;175.246;2023-03-11T03:23:17;7.70;;;1.30;;
27722;SDS011;15123;-37.794;175.246;2023-03-11T03:25:49;12.00;;;1.20;;
27722;SDS011;15123;-37.794;175.246;2023-03-11T03:28:22;8.77;;;1.20;;
27722;SDS011;15123;-37.794;175.246;2023-03-11T03:30:55;10.48;;;1.40;;
27722;SDS011;15123;-37.794;175.246;2023-03-11T03:33:32;11.18;;;1.63;;
27722;SDS011;15123;-37.794;175.246;2023-03-11T03:36:09;11.00;;;1.38;;
27722;SDS011;15123;-37.794;175.246;2023-03-11T03:38:46;8.90;;;1.23;;
27722;SDS011;15123;-37.794;175.246;2023-03-11T03:41:17;10.07;;;1.40;;
27722;SDS011;15123;-37.794;175.246;2023-03-11T03:43:49;10.55;;;1.50;;
27722;SDS011;15123;-37.794;175.246;2023-03-11T03:46:24;9.90;;;1.70;;
27722;SDS011;15123;-37.794;175.246;2023-03-11T03:48:58;9.52;;;1.55;;
27722;SDS011;15123;-37.794;175.246;2023-03-11T03:51:31;11.07;;;1.40;;
27722;SDS011;15123;-37.794;175.246;2023-03-11T03:54:15;9.88;;;1.48;;
27722;SDS011;15123;-37.794;175.246;2023-03-11T03:56:47;8.68;;;1.25;;
27722;SDS011;15123;-37.794;175.246;2023-03-11T03:59:19;11.20;;;1.17;;
27722;SDS011;15123;-37.794;175.246;2023-03-11T04:01:54;8.43;;;1.10;;
27722;SDS011;15123;-37.794;175.246;2023-03-11T04:04:28;8.43;;;1.30;;
27722;SDS011;15123;-37.794;175.246;2023-03-11T04:07:02;8.98;;;1.23;;
27722;SDS011;15123;-37.794;175.246;2023-03-11T04:09:37;7.45;;;1.20;;
27722;SDS011;15123;-37.794;175.246;2023-03-11T04:12:14;9.95;;;1.10;;
27722;SDS011;15123;-37.794;175.246;2023-03-11T04:14:49;7.10;;;1.10;;
27722;SDS011;15123;-37.794;175.246;2023-03-11T04:17:20;10.15;;;1.30;;
27722;SDS011;15123;-37.794;175.246;2023-03-11T04:19:53;7.72;;;1.25;;
27722;SDS011;15123;-37.794;175.246;2023-03-11T04:22:24;10.93;;;1.10;;
27722;SDS011;15123;-37.794;175.246;2023-03-11T04:24:56;11.40;;;1.55;;
27722;SDS011;15123;-37.794;175.246;2023-03-11T04:27:30;10.02;;;1.15;;
27722;SDS011;15123;-37.794;175.246;2023-03-11T04:30:04;9.98;;;1.20;;
27722;SDS011;15123;-37.794;175.246;2023-03-11T04:32:39;8.90;;;1.30;;
27722;SDS011;15123;-37.794;175.246;2023-03-11T04:35:11;9.13;;;1.40;;
27722;SDS011;15123;-37.794;175.246;2023-03-11T04:37:42;9.50;;;1.40;;
27722;SDS011;15123;-37.794;175.246;2023-03-11T04:40:14;8.55;;;1.52;;
27722;SDS011;15123;-37.794;175.246;2023-03-11T04:42:46;9.23;;;1.27;;
27722;SDS011;15123;-37.794;175.246;2023-03-11T04:45:18;12.77;;;1.42;;
27722;SDS011;15123;-37.794;175.246;2023-03-11T04:47:53;7.82;;;1.10;;
27722;SDS011;15123;-37.794;175.246;2023-03-11T04:50:25;11.25;;;1.20;;
27722;SDS011;15123;-37.794;175.246;2023-03-11T04:52:56;9.77;;;1.00;;
27722;SDS011;15123;-37.794;175.246;2023-03-11T04:55:29;11.32;;;1.60;;
27722;SDS011;15123;-37.794;175.246;2023-03-11T04:58:00;8.25;;;1.38;;
27722;SDS011;15123;-37.794;175.246;2023-03-11T05:00:34;10.70;;;1.13;;
27722;SDS011;15123;-37.794;175.246;2023-03-11T05:03:09;10.63;;;1.35;;
27722;SDS011;15123;-37.794;175.246;2023-03-11T05:05:41;8.02;;;1.27;;
27722;SDS011;15123;-37.794;175.246;2023-03-11T05:08:12;10.48;;;1.40;;
27722;SDS011;15123;-37.794;175.246;2023-03-11T05:10:44;10.57;;;1.33;;
27722;SDS011;15123;-37.794;175.246;2023-03-11T05:15:47;9.80;;;1.30;;
27722;SDS011;15123;-37.794;175.246;2023-03-11T05:18:19;12.60;;;1.70;;
27722;SDS011;15123;-37.794;175.246;2023-03-11T05:20:51;11.98;;;1.67;;
27722;SDS011;15123;-37.794;175.246;2023-03-11T05:23:25;13.85;;;1.42;;
27722;SDS011;15123;-37.794;175.246;2023-03-11T05:25:57;8.82;;;1.20;;
27722;SDS011;15123;-37.794;175.246;2023-03-11T05:28:30;12.82;;;1.60;;
27722;SDS011;15123;-37.794;175.246;2023-03-11T05:31:06;9.18;;;1.20;;
27722;SDS011;15123;-37.794;175.246;2023-03-11T05:33:39;11.50;;;1.55;;
27722;SDS011;15123;-37.794;175.246;2023-03-11T05:36:13;10.65;;;1.20;;
27722;SDS011;15123;-37.794;175.246;2023-03-11T05:38:45;14.32;;;1.58;;
27722;SDS011;15123;-37.794;175.246;2023-03-11T05:41:16;12.70;;;1.30;;
27722;SDS011;15123;-37.794;175.246;2023-03-11T05:43:48;11.73;;;1.40;;
27722;SDS011;15123;-37.794;175.246;2023-03-11T05:46:19;13.02;;;1.30;;
27722;SDS011;15123;-37.794;175.246;2023-03-11T05:48:51;11.55;;;1.30;;
27722;SDS011;15123;-37.794;175.246;2023-03-11T05:51:23;13.15;;;1.70;;
27722;SDS011;15123;-37.794;175.246;2023-03-11T05:53:55;15.25;;;1.50;;
27722;SDS011;15123;-37.794;175.246;2023-03-11T05:56:35;14.25;;;1.40;;
27722;SDS011;15123;-37.794;175.246;2023-03-11T05:59:07;15.07;;;2.08;;
27722;SDS011;15123;-37.794;175.246;2023-03-11T06:01:44;10.70;;;1.30;;
27722;SDS011;15123;-37.794;175.246;2023-03-11T06:04:16;12.43;;;1.30;;
27722;SDS011;15123;-37.794;175.246;2023-03-11T06:06:52;13.18;;;1.48;;
27722;SDS011;15123;-37.794;175.246;2023-03-11T06:09:27;12.15;;;1.40;;
27722;SDS011;15123;-37.794;175.246;2023-03-11T06:11:58;13.73;;;1.30;;
27722;SDS011;15123;-37.794;175.246;2023-03-11T06:14:45;11.05;;;1.38;;
27722;SDS011;15123;-37.794;175.246;2023-03-11T06:17:16;13.18;;;1.27;;
27722;SDS011;15123;-37.794;175.246;2023-03-11T06:19:48;10.45;;;1.48;;
27722;SDS011;15123;-37.794;175.246;2023-03-11T06:22:20;12.93;;;1.48;;
27722;SDS011;15123;-37.794;175.246;2023-03-11T06:24:52;13.60;;;1.40;;
27722;SDS011;15123;-37.794;175.246;2023-03-11T06:27:24;12.55;;;1.40;;
27722;SDS011;15123;-37.794;175.246;2023-03-11T06:29:55;8.88;;;1.38;;
27722;SDS011;15123;-37.794;175.246;2023-03-11T06:32:30;10.95;;;1.30;;
27722;SDS011;15123;-37.794;175.246;2023-03-11T06:35:03;13.75;;;1.58;;
27722;SDS011;15123;-37.794;175.246;2023-03-11T06:37:35;12.50;;;1.38;;
27722;SDS011;15123;-37.794;175.246;2023-03-11T06:40:08;11.55;;;1.10;;
27722;SDS011;15123;-37.794;175.246;2023-03-11T06:42:40;10.80;;;1.30;;
27722;SDS011;15123;-37.794;175.246;2023-03-11T06:45:11;11.13;;;1.73;;
27722;SDS011;15123;-37.794;175.246;2023-03-11T06:47:43;10.88;;;1.17;;
27722;SDS011;15123;-37.794;175.246;2023-03-11T06:50:15;11.82;;;1.30;;
27722;SDS011;15123;-37.794;175.246;2023-03-11T06:55:18;12.68;;;1.45;;
27722;SDS011;15123;-37.794;175.246;2023-03-11T06:57:49;11.20;;;1.30;;
27722;SDS011;15123;-37.794;175.246;2023-03-11T07:00:21;9.35;;;1.15;;
27722;SDS011;15123;-37.794;175.246;2023-03-11T07:02:58;14.10;;;1.35;;
27722;SDS011;15123;-37.794;175.246;2023-03-11T07:05:30;11.50;;;1.63;;
27722;SDS011;15123;-37.794;175.246;2023-03-11T07:08:06;10.15;;;1.38;;
27722;SDS011;15123;-37.794;175.246;2023-03-11T07:10:38;11.80;;;1.20;;
27722;SDS011;15123;-37.794;175.246;2023-03-11T07:13:09;11.60;;;1.45;;
27722;SDS011;15123;-37.794;175.246;2023-03-11T07:15:41;12.05;;;1.52;;
27722;SDS011;15123;-37.794;175.246;2023-03-11T07:18:13;9.63;;;1.20;;
27722;SDS011;15123;-37.794;175.246;2023-03-11T07:20:45;10.48;;;1.17;;
27722;SDS011;15123;-37.794;175.246;2023-03-11T07:23:16;14.32;;;1.40;;
27722;SDS011;15123;-37.794;175.246;2023-03-11T07:25:48;12.35;;;1.48;;
27722;SDS011;15123;-37.794;175.246;2023-03-11T07:28:22;13.35;;;1.20;;
27722;SDS011;15123;-37.794;175.246;2023-03-11T07:30:54;9.43;;;1.15;;
27722;SDS011;15123;-37.794;175.246;2023-03-11T07:35:56;9.38;;;1.17;;
27722;SDS011;15123;-37.794;175.246;2023-03-11T07:40:59;9.63;;;1.35;;
27722;SDS011;15123;-37.794;175.246;2023-03-11T07:43:30;12.82;;;1.42;;
27722;SDS011;15123;-37.794;175.246;2023-03-11T07:46:06;13.35;;;1.58;;
27722;SDS011;15123;-37.794;175.246;2023-03-11T07:48:39;14.65;;;1.38;;
27722;SDS011;15123;-37.794;175.246;2023-03-11T07:51:14;9.20;;;1.00;;
27722;SDS011;15123;-37.794;175.246;2023-03-11T07:53:52;10.85;;;1.20;;
27722;SDS011;15123;-37.794;175.246;2023-03-11T07:56:25;10.77;;;1.30;;
27722;SDS011;15123;-37.794;175.246;2023-03-11T07:58:59;11.10;;;1.20;;
27722;SDS011;15123;-37.794;175.246;2023-03-11T08:01:31;12.10;;;1.33;;
27722;SDS011;15123;-37.794;175.246;2023-03-11T08:04:10;13.07;;;1.58;;
27722;SDS011;15123;-37.794;175.246;2023-03-11T08:06:43;14.20;;;1.50;;
27722;SDS011;15123;-37.794;175.246;2023-03-11T08:09:15;8.88;;;1.20;;
27722;SDS011;15123;-37.794;175.246;2023-03-11T08:11:47;12.05;;;1.30;;
27722;SDS011;15123;-37.794;175.246;2023-03-11T08:14:18;10.77;;;1.45;;
27722;SDS011;15123;-37.794;175.246;2023-03-11T08:16:50;10.00;;;1.67;;
27722;SDS011;15123;-37.794;175.246;2023-03-11T08:19:21;12.25;;;1.52;;
27722;SDS011;15123;-37.794;175.246;2023-03-11T08:21:52;13.38;;;1.30;;
27722;SDS011;15123;-37.794;175.246;2023-03-11T08:24:24;9.75;;;1.10;;
27722;SDS011;15123;-37.794;175.246;2023-03-11T08:26:55;12.75;;;1.33;;
27722;SDS011;15123;-37.794;175.246;2023-03-11T08:29:27;11.68;;;1.10;;
27722;SDS011;15123;-37.794;175.246;2023-03-11T08:31:58;11.90;;;1.30;;
27722;SDS011;15123;-37.794;175.246;2023-03-11T08:34:29;11.95;;;1.30;;
27722;SDS011;15123;-37.794;175.246;2023-03-11T08:37:02;11.77;;;1.13;;
27722;SDS011;15123;-37.794;175.246;2023-03-11T08:39:33;10.43;;;1.15;;
27722;SDS011;15123;-37.794;175.246;2023-03-11T08:42:04;14.27;;;1.23;;
27722;SDS011;15123;-37.794;175.246;2023-03-11T08:44:36;10.77;;;1.40;;
27722;SDS011;15123;-37.794;175.246;2023-03-11T08:47:07;11.35;;;1.20;;
27722;SDS011;15123;-37.794;175.246;2023-03-11T08:49:39;9.65;;;1.10;;
27722;SDS011;15123;-37.794;175.246;2023-03-11T08:52:10;12.55;;;1.17;;
27722;SDS011;15123;-37.794;175.246;2023-03-11T08:54:41;11.77;;;1.27;;
27722;SDS011;15123;-37.794;175.246;2023-03-11T08:57:13;12.32;;;1.52;;
27722;SDS011;15123;-37.794;175.246;2023-03-11T08:59:44;11.45;;;1.40;;
27722;SDS011;15123;-37.794;175.246;2023-03-11T09:02:16;9.95;;;1.38;;
27722;SDS011;15123;-37.794;175.246;2023-03-11T09:04:47;10.10;;;1.10;;
27722;SDS011;15123;-37.794;175.246;2023-03-11T09:07:19;11.20;;;1.20;;
27722;SDS011;15123;-37.794;175.246;2023-03-11T09:09:50;10.57;;;1.33;;
27722;SDS011;15123;-37.794;175.246;2023-03-11T09:12:23;11.30;;;1.33;;
27722;SDS011;15123;-37.794;175.246;2023-03-11T09:14:54;12.10;;;1.38;;
27722;SDS011;15123;-37.794;175.246;2023-03-11T09:17:26;11.05;;;1.25;;
27722;SDS011;15123;-37.794;175.246;2023-03-11T09:19:57;10.55;;;1.50;;
27722;SDS011;15123;-37.794;175.246;2023-03-11T09:22:29;11.48;;;1.45;;
27722;SDS011;15123;-37.794;175.246;2023-03-11T09:25:00;8.80;;;1.50;;
27722;SDS011;15123;-37.794;175.246;2023-03-11T09:27:32;10.50;;;1.50;;
27722;SDS011;15123;-37.794;175.246;2023-03-11T09:30:03;11.30;;;2.00;;
27722;SDS011;15123;-37.794;175.246;2023-03-11T09:35:06;10.95;;;1.40;;
27722;SDS011;15123;-37.794;175.246;2023-03-11T09:37:38;10.48;;;1.00;;
27722;SDS011;15123;-37.794;175.246;2023-03-11T09:40:11;11.63;;;1.40;;
27722;SDS011;15123;-37.794;175.246;2023-03-11T09:43:30;10.55;;;1.70;;
27722;SDS011;15123;-37.794;175.246;2023-03-11T09:46:12;9.23;;;1.30;;
27722;SDS011;15123;-37.794;175.246;2023-03-11T09:52:05;14.85;;;1.40;;
27722;SDS011;15123;-37.794;175.246;2023-03-11T09:54:47;13.27;;;1.23;;
27722;SDS011;15123;-37.794;175.246;2023-03-11T09:57:24;11.30;;;1.30;;
27722;SDS011;15123;-37.794;175.246;2023-03-11T10:00:02;13.57;;;1.38;;
27722;SDS011;15123;-37.794;175.246;2023-03-11T10:02:40;10.90;;;1.30;;
27722;SDS011;15123;-37.794;175.246;2023-03-11T10:05:14;15.40;;;1.95;;
27722;SDS011;15123;-37.794;175.246;2023-03-11T10:07:56;10.25;;;1.30;;
27722;SDS011;15123;-37.794;175.246;2023-03-11T10:10:43;14.70;;;1.70;;
27722;SDS011;15123;-37.794;175.246;2023-03-11T10:13:24;12.82;;;1.50;;
27722;SDS011;15123;-37.794;175.246;2023-03-11T10:16:20;11.85;;;1.50;;
27722;SDS011;15123;-37.794;175.246;2023-03-11T10:30:40;12.93;;;1.40;;
27722;SDS011;15123;-37.794;175.246;2023-03-11T10:33:20;9.90;;;1.20;;
27722;SDS011;15123;-37.794;175.246;2023-03-11T10:36:16;10.52;;;1.30;;
27722;SDS011;15123;-37.794;175.246;2023-03-11T10:38:53;10.90;;;1.20;;
27722;SDS011;15123;-37.794;175.246;2023-03-11T10:41:37;10.15;;;1.20;;
27722;SDS011;15123;-37.794;175.246;2023-03-11T10:44:21;11.93;;;1.30;;
27722;SDS011;15123;-37.794;175.246;2023-03-11T10:46:57;11.25;;;1.23;;
27722;SDS011;15123;-37.794;175.246;2023-03-11T10:49:29;9.50;;;1.35;;
27722;SDS011;15123;-37.794;175.246;2023-03-11T10:54:38;11.93;;;1.20;;
27722;SDS011;15123;-37.794;175.246;2023-03-11T10:57:25;12.02;;;1.30;;
27722;SDS011;15123;-37.794;175.246;2023-03-11T11:00:00;10.02;;;1.10;;
27722;SDS011;15123;-37.794;175.246;2023-03-11T11:02:38;13.07;;;1.20;;
27722;SDS011;15123;-37.794;175.246;2023-03-11T11:05:23;11.23;;;1.08;;
27722;SDS011;15123;-37.794;175.246;2023-03-11T11:08:08;11.05;;;1.20;;
27722;SDS011;15123;-37.794;175.246;2023-03-11T11:10:50;11.20;;;1.30;;
27722;SDS011;15123;-37.794;175.246;2023-03-11T11:13:24;10.68;;;1.10;;
27722;SDS011;15123;-37.794;175.246;2023-03-11T11:16:01;10.73;;;1.10;;
27722;SDS011;15123;-37.794;175.246;2023-03-11T11:21:30;10.50;;;1.10;;
27722;SDS011;15123;-37.794;175.246;2023-03-11T11:24:13;14.43;;;1.30;;
27722;SDS011;15123;-37.794;175.246;2023-03-11T11:29:47;10.55;;;1.50;;
27722;SDS011;15123;-37.794;175.246;2023-03-11T11:32:38;11.07;;;1.20;;
27722;SDS011;15123;-37.794;175.246;2023-03-11T11:35:12;10.68;;;1.42;;
27722;SDS011;15123;-37.794;175.246;2023-03-11T11:37:48;11.93;;;1.40;;
27722;SDS011;15123;-37.794;175.246;2023-03-11T11:40:30;10.38;;;1.33;;
27722;SDS011;15123;-37.794;175.246;2023-03-11T11:43:09;11.43;;;1.25;;
27722;SDS011;15123;-37.794;175.246;2023-03-11T11:45:48;9.23;;;1.27;;
27722;SDS011;15123;-37.794;175.246;2023-03-11T11:48:46;14.60;;;1.80;;
27722;SDS011;15123;-37.794;175.246;2023-03-11T11:51:22;10.30;;;1.33;;
27722;SDS011;15123;-37.794;175.246;2023-03-11T11:57:17;13.23;;;1.23;;
27722;SDS011;15123;-37.794;175.246;2023-03-11T11:59:50;13.13;;;1.20;;
27722;SDS011;15123;-37.794;175.246;2023-03-11T12:05:51;10.23;;;1.30;;
27722;SDS011;15123;-37.794;175.246;2023-03-11T12:08:41;10.93;;;1.45;;
27722;SDS011;15123;-37.794;175.246;2023-03-11T12:11:30;8.57;;;1.60;;
27722;SDS011;15123;-37.794;175.246;2023-03-11T12:14:47;12.52;;;1.50;;
27722;SDS011;15123;-37.794;175.246;2023-03-11T12:17:23;9.20;;;1.08;;
27722;SDS011;15123;-37.794;175.246;2023-03-11T12:19:58;13.48;;;1.85;;
27722;SDS011;15123;-37.794;175.246;2023-03-11T12:31:14;8.95;;;1.25;;
27722;SDS011;15123;-37.794;175.246;2023-03-11T12:33:47;7.75;;;1.10;;
27722;SDS011;15123;-37.794;175.246;2023-03-11T12:36:23;12.25;;;1.20;;
27722;SDS011;15123;-37.794;175.246;2023-03-11T12:39:04;10.30;;;1.45;;
27722;SDS011;15123;-37.794;175.246;2023-03-11T12:41:37;10.48;;;1.40;;
27722;SDS011;15123;-37.794;175.246;2023-03-11T12:44:26;11.10;;;1.20;;
27722;SDS011;15123;-37.794;175.246;2023-03-11T12:47:12;10.73;;;1.52;;
27722;SDS011;15123;-37.794;175.246;2023-03-11T12:52:21;14.05;;;1.40;;
27722;SDS011;15123;-37.794;175.246;2023-03-11T12:57:35;12.05;;;1.40;;
27722;SDS011;15123;-37.794;175.246;2023-03-11T13:00:18;11.10;;;1.25;;
27722;SDS011;15123;-37.794;175.246;2023-03-11T13:06:23;9.88;;;1.13;;
27722;SDS011;15123;-37.794;175.246;2023-03-11T13:09:21;11.18;;;1.40;;
27722;SDS011;15123;-37.794;175.246;2023-03-11T13:11:52;13.27;;;1.83;;
27722;SDS011;15123;-37.794;175.246;2023-03-11T13:19:56;9.88;;;1.38;;
27722;SDS011;15123;-37.794;175.246;2023-03-11T13:25:28;10.48;;;1.40;;
27722;SDS011;15123;-37.794;175.246;2023-03-11T13:33:50;9.90;;;1.30;;
27722;SDS011;15123;-37.794;175.246;2023-03-11T13:39:17;13.98;;;1.60;;
27722;SDS011;15123;-37.794;175.246;2023-03-11T13:44:51;10.95;;;1.55;;
27722;SDS011;15123;-37.794;175.246;2023-03-11T13:47:22;8.98;;;1.50;;
27722;SDS011;15123;-37.794;175.246;2023-03-11T13:50:05;11.65;;;1.65;;
27722;SDS011;15123;-37.794;175.246;2023-03-11T13:52:47;9.63;;;1.60;;
27722;SDS011;15123;-37.794;175.246;2023-03-11T13:57:56;12.95;;;1.85;;
27722;SDS011;15123;-37.794;175.246;2023-03-11T14:00:29;12.77;;;1.48;;
27722;SDS011;15123;-37.794;175.246;2023-03-11T14:03:03;11.95;;;1.40;;
27722;SDS011;15123;-37.794;175.246;2023-03-11T14:05:42;11.02;;;1.55;;
27722;SDS011;15123;-37.794;175.246;2023-03-11T14:08:29;12.68;;;1.65;;
27722;SDS011;15123;-37.794;175.246;2023-03-11T14:13:48;11.32;;;1.60;;
27722;SDS011;15123;-37.794;175.246;2023-03-11T14:19:05;12.10;;;1.48;;
27722;SDS011;15123;-37.794;175.246;2023-03-11T14:21:48;8.50;;;1.17;;
27722;SDS011;15123;-37.794;175.246;2023-03-11T14:24:27;11.05;;;1.30;;
27722;SDS011;15123;-37.794;175.246;2023-03-11T14:26:59;11.98;;;1.33;;
27722;SDS011;15123;-37.794;175.246;2023-03-11T14:29:37;10.98;;;1.50;;
27722;SDS011;15123;-37.794;175.246;2023-03-11T14:32:15;12.70;;;1.40;;
27722;SDS011;15123;-37.794;175.246;2023-03-11T14:35:19;16.88;;;2.20;;
27722;SDS011;15123;-37.794;175.246;2023-03-11T14:37:50;11.32;;;1.70;;
27722;SDS011;15123;-37.794;175.246;2023-03-11T14:42:54;7.90;;;1.20;;
27722;SDS011;15123;-37.794;175.246;2023-03-11T14:45:34;11.38;;;1.52;;
27722;SDS011;15123;-37.794;175.246;2023-03-11T14:50:56;11.02;;;1.42;;
27722;SDS011;15123;-37.794;175.246;2023-03-11T14:53:29;7.38;;;1.35;;
27722;SDS011;15123;-37.794;175.246;2023-03-11T14:56:18;13.57;;;1.60;;
27722;SDS011;15123;-37.794;175.246;2023-03-11T14:58:54;10.32;;;1.75;;
27722;SDS011;15123;-37.794;175.246;2023-03-11T15:01:40;9.57;;;1.70;;
27722;SDS011;15123;-37.794;175.246;2023-03-11T15:04:13;10.02;;;1.65;;
27722;SDS011;15123;-37.794;175.246;2023-03-11T15:06:57;12.10;;;2.53;;
27722;SDS011;15123;-37.794;175.246;2023-03-11T15:09:30;13.82;;;2.30;;
27722;SDS011;15123;-37.794;175.246;2023-03-11T15:12:02;11.60;;;2.28;;
27722;SDS011;15123;-37.794;175.246;2023-03-11T15:14:35;12.38;;;2.17;;
27722;SDS011;15123;-37.794;175.246;2023-03-11T15:17:23;12.45;;;2.63;;
27722;SDS011;15123;-37.794;175.246;2023-03-11T15:20:27;11.52;;;2.60;;
27722;SDS011;15123;-37.794;175.246;2023-03-11T15:23:04;13.43;;;2.97;;
27722;SDS011;15123;-37.794;175.246;2023-03-11T15:25:37;13.05;;;3.50;;
27722;SDS011;15123;-37.794;175.246;2023-03-11T15:28:13;13.77;;;3.60;;
27722;SDS011;15123;-37.794;175.246;2023-03-11T15:33:52;18.40;;;4.05;;
27722;SDS011;15123;-37.794;175.246;2023-03-11T15:36:29;13.27;;;3.13;;
27722;SDS011;15123;-37.794;175.246;2023-03-11T15:39:15;14.02;;;3.15;;
27722;SDS011;15123;-37.794;175.246;2023-03-11T15:44:34;12.95;;;2.95;;
27722;SDS011;15123;-37.794;175.246;2023-03-11T15:47:13;14.57;;;2.95;;
27722;SDS011;15123;-37.794;175.246;2023-03-11T15:49:50;13.00;;;2.72;;
27722;SDS011;15123;-37.794;175.246;2023-03-11T15:52:21;10.45;;;2.75;;
27722;SDS011;15123;-37.794;175.246;2023-03-11T15:54:53;11.45;;;2.47;;
27722;SDS011;15123;-37.794;175.246;2023-03-11T15:57:27;10.52;;;2.20;;
27722;SDS011;15123;-37.794;175.246;2023-03-11T16:00:00;12.35;;;2.60;;
27722;SDS011;15123;-37.794;175.246;2023-03-11T16:02:33;11.90;;;2.63;;
27722;SDS011;15123;-37.794;175.246;2023-03-11T16:07:41;9.73;;;2.10;;
27722;SDS011;15123;-37.794;175.246;2023-03-11T16:10:15;15.63;;;2.47;;
27722;SDS011;15123;-37.794;175.246;2023-03-11T16:12:50;10.57;;;2.25;;
27722;SDS011;15123;-37.794;175.246;2023-03-11T16:15:25;13.77;;;2.75;;
27722;SDS011;15123;-37.794;175.246;2023-03-11T16:18:00;13.27;;;2.72;;
27722;SDS011;15123;-37.794;175.246;2023-03-11T16:20:35;9.98;;;2.50;;
27722;SDS011;15123;-37.794;175.246;2023-03-11T16:23:21;9.52;;;2.20;;
27722;SDS011;15123;-37.794;175.246;2023-03-11T16:25:57;9.80;;;2.10;;
27722;SDS011;15123;-37.794;175.246;2023-03-11T16:28:29;11.50;;;1.92;;
27722;SDS011;15123;-37.794;175.246;2023-03-11T16:31:01;13.65;;;2.10;;
27722;SDS011;15123;-37.794;175.246;2023-03-11T16:33:33;11.57;;;2.50;;
27722;SDS011;15123;-37.794;175.246;2023-03-11T16:36:05;11.50;;;2.33;;
27722;SDS011;15123;-37.794;175.246;2023-03-11T16:38:44;11.93;;;2.13;;
27722;SDS011;15123;-37.794;175.246;2023-03-11T16:41:16;9.30;;;2.25;;
27722;SDS011;15123;-37.794;175.246;2023-03-11T16:43:48;9.50;;;2.33;;
27722;SDS011;15123;-37.794;175.246;2023-03-11T16:46:20;10.57;;;1.90;;
27722;SDS011;15123;-37.794;175.246;2023-03-11T16:48:51;10.25;;;2.20;;
27722;SDS011;15123;-37.794;175.246;2023-03-11T16:51:23;14.88;;;2.25;;
27722;SDS011;15123;-37.794;175.246;2023-03-11T16:53:54;11.70;;;1.80;;
27722;SDS011;15123;-37.794;175.246;2023-03-11T16:56:26;10.77;;;1.90;;
27722;SDS011;15123;-37.794;175.246;2023-03-11T16:58:57;9.70;;;1.95;;
27722;SDS011;15123;-37.794;175.246;2023-03-11T17:01:29;8.07;;;1.50;;